sensor_id;sensor_type;location;lat;lon;timestamp;P1;durP1;ratioP1;P2;durP2;ratioP2
18822;SDS011;9540;51.550;7.980;2023-03-21T00:00:59;15.88;;;8.38;;
18822;SDS011;9540;51.550;7.980;2023-03-21T00:03:28;21.95;;;8.25;;
18822;SDS011;9540;51.550;7.980;2023-03-21T00:05:56;25.95;;;10.68;;
18822;SDS011;9540;51.550;7.980;2023-03-21T00:08:24;24.80;;;10.10;;
18822;SDS011;9540;51.550;7.980;2023-03-21T00:10:56;21.40;;;8.40;;
18822;SDS011;9540;51.550;7.980;2023-03-21T00:13:24;20.85;;;9.45;;
18822;SDS011;9540;51.550;7.980;2023-03-21T00:15:52;20.27;;;9.60;;
18822;SDS011;9540;51.550;7.980;2023-03-21T00:18:20;22.17;;;9.65;;
18822;SDS011;9540;51.550;7.980;2023-03-21T00:20:57;21.83;;;9.27;;
18822;SDS011;9540;51.550;7.980;2023-03-21T00:23:24;23.45;;;9.23;;
18822;SDS011;9540;51.550;7.980;2023-03-21T00:25:53;17.42;;;8.15;;
18822;SDS011;9540;51.550;7.980;2023-03-21T00:28:21;20.95;;;9.07;;
18822;SDS011;9540;51.550;7.980;2023-03-21T00:30:49;20.13;;;7.97;;
18822;SDS011;9540;51.550;7.980;2023-03-21T00:33:17;19.35;;;8.15;;
18822;SDS011;9540;51.550;7.980;2023-03-21T00:35:46;16.60;;;8.10;;
18822;SDS011;9540;51.550;7.980;2023-03-21T00:38:16;18.25;;;9.32;;
18822;SDS011;9540;51.550;7.980;2023-03-21T00:40:43;21.92;;;9.25;;
18822;SDS011;9540;51.550;7.980;2023-03-21T00:43:11;20.30;;;8.68;;
18822;SDS011;9540;51.550;7.980;2023-03-21T00:45:40;16.60;;;8.57;;
18822;SDS011;9540;51.550;7.980;2023-03-21T00:48:07;18.42;;;8.48;;
18822;SDS011;9540;51.550;7.980;2023-03-21T00:50:34;23.42;;;9.25;;
18822;SDS011;9540;51.550;7.980;2023-03-21T00:53:01;19.50;;;9.00;;
18822;SDS011;9540;51.550;7.980;2023-03-21T00:55:29;22.67;;;8.90;;
18822;SDS011;9540;51.550;7.980;2023-03-21T00:57:56;24.30;;;9.55;;
18822;SDS011;9540;51.550;7.980;2023-03-21T01:00:26;16.70;;;8.55;;
18822;SDS011;9540;51.550;7.980;2023-03-21T01:02:55;23.30;;;9.07;;
18822;SDS011;9540;51.550;7.980;2023-03-21T01:05:22;19.42;;;8.52;;
18822;SDS011;9540;51.550;7.980;2023-03-21T01:08:05;18.13;;;9.00;;
18822;SDS011;9540;51.550;7.980;2023-03-21T01:10:32;23.85;;;9.57;;
18822;SDS011;9540;51.550;7.980;2023-03-21T01:13:02;19.20;;;10.00;;
18822;SDS011;9540;51.550;7.980;2023-03-21T01:15:29;19.65;;;9.40;;
18822;SDS011;9540;51.550;7.980;2023-03-21T01:17:58;24.75;;;10.07;;
18822;SDS011;9540;51.550;7.980;2023-03-21T01:20:25;20.00;;;9.05;;
18822;SDS011;9540;51.550;7.980;2023-03-21T01:22:52;16.75;;;8.68;;
18822;SDS011;9540;51.550;7.980;2023-03-21T01:25:20;21.98;;;9.43;;
18822;SDS011;9540;51.550;7.980;2023-03-21T01:27:47;20.92;;;8.95;;
18822;SDS011;9540;51.550;7.980;2023-03-21T01:30:15;23.77;;;9.23;;
18822;SDS011;9540;51.550;7.980;2023-03-21T01:32:43;22.42;;;8.63;;
18822;SDS011;9540;51.550;7.980;2023-03-21T01:35:11;25.55;;;9.00;;
18822;SDS011;9540;51.550;7.980;2023-03-21T01:37:38;23.35;;;9.05;;
18822;SDS011;9540;51.550;7.980;2023-03-21T01:40:06;22.58;;;8.13;;
18822;SDS011;9540;51.550;7.980;2023-03-21T01:42:37;16.50;;;8.60;;
18822;SDS011;9540;51.550;7.980;2023-03-21T01:45:57;23.70;;;9.32;;
18822;SDS011;9540;51.550;7.980;2023-03-21T01:48:10;23.70;;;8.95;;
18822;SDS011;9540;51.550;7.980;2023-03-21T01:50:38;21.95;;;9.95;;
18822;SDS011;9540;51.550;7.980;2023-03-21T01:53:07;25.35;;;9.82;;
18822;SDS011;9540;51.550;7.980;2023-03-21T01:55:35;21.88;;;9.05;;
18822;SDS011;9540;51.550;7.980;2023-03-21T01:58:03;25.30;;;9.95;;
18822;SDS011;9540;51.550;7.980;2023-03-21T02:00:31;24.98;;;9.73;;
18822;SDS011;9540;51.550;7.980;2023-03-21T02:03:01;22.77;;;9.50;;
18822;SDS011;9540;51.550;7.980;2023-03-21T02:05:35;26.42;;;10.05;;
18822;SDS011;9540;51.550;7.980;2023-03-21T02:08:07;22.63;;;9.73;;
18822;SDS011;9540;51.550;7.980;2023-03-21T02:10:34;25.73;;;9.48;;
18822;SDS011;9540;51.550;7.980;2023-03-21T02:13:02;22.77;;;9.77;;
18822;SDS011;9540;51.550;7.980;2023-03-21T02:15:33;23.33;;;9.57;;
18822;SDS011;9540;51.550;7.980;2023-03-21T02:18:03;23.52;;;9.55;;
18822;SDS011;9540;51.550;7.980;2023-03-21T02:20:41;18.08;;;8.75;;
18822;SDS011;9540;51.550;7.980;2023-03-21T02:23:49;23.08;;;9.48;;
18822;SDS011;9540;51.550;7.980;2023-03-21T02:26:34;19.98;;;8.88;;
18822;SDS011;9540;51.550;7.980;2023-03-21T02:29:33;19.27;;;8.73;;
18822;SDS011;9540;51.550;7.980;2023-03-21T02:32:21;23.63;;;8.88;;
18822;SDS011;9540;51.550;7.980;2023-03-21T02:35:01;23.48;;;9.25;;
18822;SDS011;9540;51.550;7.980;2023-03-21T02:37:42;18.33;;;8.77;;
18822;SDS011;9540;51.550;7.980;2023-03-21T02:40:15;25.48;;;10.18;;
18822;SDS011;9540;51.550;7.980;2023-03-21T02:42:52;27.35;;;9.85;;
18822;SDS011;9540;51.550;7.980;2023-03-21T02:45:28;22.85;;;8.63;;
18822;SDS011;9540;51.550;7.980;2023-03-21T02:48:02;21.70;;;8.93;;
18822;SDS011;9540;51.550;7.980;2023-03-21T02:50:33;24.67;;;8.48;;
18822;SDS011;9540;51.550;7.980;2023-03-21T02:53:07;22.25;;;8.95;;
18822;SDS011;9540;51.550;7.980;2023-03-21T02:55:36;23.20;;;9.07;;
18822;SDS011;9540;51.550;7.980;2023-03-21T02:58:08;25.02;;;9.63;;
18822;SDS011;9540;51.550;7.980;2023-03-21T03:00:37;19.67;;;9.20;;
18822;SDS011;9540;51.550;7.980;2023-03-21T03:03:07;19.05;;;8.00;;
18822;SDS011;9540;51.550;7.980;2023-03-21T03:05:39;22.77;;;9.48;;
18822;SDS011;9540;51.550;7.980;2023-03-21T03:08:13;18.95;;;8.15;;
18822;SDS011;9540;51.550;7.980;2023-03-21T03:10:52;23.80;;;9.65;;
18822;SDS011;9540;51.550;7.980;2023-03-21T03:13:33;25.67;;;9.85;;
18822;SDS011;9540;51.550;7.980;2023-03-21T03:16:10;24.85;;;9.80;;
18822;SDS011;9540;51.550;7.980;2023-03-21T03:18:47;23.92;;;9.55;;
18822;SDS011;9540;51.550;7.980;2023-03-21T03:21:18;18.27;;;9.10;;
18822;SDS011;9540;51.550;7.980;2023-03-21T03:23:51;24.42;;;10.40;;
18822;SDS011;9540;51.550;7.980;2023-03-21T03:26:23;23.05;;;9.98;;
18822;SDS011;9540;51.550;7.980;2023-03-21T03:28:55;21.00;;;9.15;;
18822;SDS011;9540;51.550;7.980;2023-03-21T03:31:28;22.38;;;10.35;;
18822;SDS011;9540;51.550;7.980;2023-03-21T03:33:59;21.77;;;11.98;;
18822;SDS011;9540;51.550;7.980;2023-03-21T03:36:32;24.50;;;10.90;;
18822;SDS011;9540;51.550;7.980;2023-03-21T03:39:06;19.23;;;9.93;;
18822;SDS011;9540;51.550;7.980;2023-03-21T03:41:37;21.95;;;10.43;;
18822;SDS011;9540;51.550;7.980;2023-03-21T03:44:10;24.63;;;10.38;;
18822;SDS011;9540;51.550;7.980;2023-03-21T03:46:39;29.10;;;11.07;;
18822;SDS011;9540;51.550;7.980;2023-03-21T03:49:12;25.33;;;10.10;;
18822;SDS011;9540;51.550;7.980;2023-03-21T03:51:44;24.05;;;10.95;;
18822;SDS011;9540;51.550;7.980;2023-03-21T03:54:20;25.25;;;10.55;;
18822;SDS011;9540;51.550;7.980;2023-03-21T03:56:49;28.73;;;11.27;;
18822;SDS011;9540;51.550;7.980;2023-03-21T03:59:17;26.10;;;11.25;;
18822;SDS011;9540;51.550;7.980;2023-03-21T04:01:46;22.67;;;11.65;;
18822;SDS011;9540;51.550;7.980;2023-03-21T04:04:13;22.27;;;11.68;;
18822;SDS011;9540;51.550;7.980;2023-03-21T04:06:41;37.15;;;11.65;;
18822;SDS011;9540;51.550;7.980;2023-03-21T04:09:10;20.38;;;10.38;;
18822;SDS011;9540;51.550;7.980;2023-03-21T04:11:39;26.05;;;10.75;;
18822;SDS011;9540;51.550;7.980;2023-03-21T04:14:06;23.15;;;11.27;;
18822;SDS011;9540;51.550;7.980;2023-03-21T04:16:33;24.48;;;10.05;;
18822;SDS011;9540;51.550;7.980;2023-03-21T04:19:00;25.85;;;12.55;;
18822;SDS011;9540;51.550;7.980;2023-03-21T04:21:28;28.30;;;10.73;;
18822;SDS011;9540;51.550;7.980;2023-03-21T04:23:55;21.88;;;12.05;;
18822;SDS011;9540;51.550;7.980;2023-03-21T04:26:23;22.63;;;11.88;;
18822;SDS011;9540;51.550;7.980;2023-03-21T04:28:58;28.88;;;12.38;;
18822;SDS011;9540;51.550;7.980;2023-03-21T04:31:26;23.40;;;12.48;;
18822;SDS011;9540;51.550;7.980;2023-03-21T04:33:55;30.45;;;11.93;;
18822;SDS011;9540;51.550;7.980;2023-03-21T04:36:23;31.30;;;12.00;;
18822;SDS011;9540;51.550;7.980;2023-03-21T04:38:52;31.05;;;11.75;;
18822;SDS011;9540;51.550;7.980;2023-03-21T04:41:21;29.35;;;12.77;;
18822;SDS011;9540;51.550;7.980;2023-03-21T04:43:48;24.77;;;11.85;;
18822;SDS011;9540;51.550;7.980;2023-03-21T04:46:17;29.08;;;12.95;;
18822;SDS011;9540;51.550;7.980;2023-03-21T04:48:45;28.05;;;12.98;;
18822;SDS011;9540;51.550;7.980;2023-03-21T04:51:13;36.10;;;12.38;;
18822;SDS011;9540;51.550;7.980;2023-03-21T04:53:40;29.52;;;12.20;;
18822;SDS011;9540;51.550;7.980;2023-03-21T04:56:09;24.98;;;10.90;;
18822;SDS011;9540;51.550;7.980;2023-03-21T04:58:36;31.42;;;13.02;;
18822;SDS011;9540;51.550;7.980;2023-03-21T05:01:04;27.00;;;12.40;;
18822;SDS011;9540;51.550;7.980;2023-03-21T05:03:34;31.65;;;11.45;;
18822;SDS011;9540;51.550;7.980;2023-03-21T05:06:05;30.88;;;12.55;;
18822;SDS011;9540;51.550;7.980;2023-03-21T05:08:33;27.98;;;12.85;;
18822;SDS011;9540;51.550;7.980;2023-03-21T05:11:01;30.23;;;12.30;;
18822;SDS011;9540;51.550;7.980;2023-03-21T05:13:28;30.90;;;12.52;;
18822;SDS011;9540;51.550;7.980;2023-03-21T05:15:59;32.67;;;13.32;;
18822;SDS011;9540;51.550;7.980;2023-03-21T05:18:26;33.45;;;13.07;;
18822;SDS011;9540;51.550;7.980;2023-03-21T05:21:00;30.60;;;12.63;;
18822;SDS011;9540;51.550;7.980;2023-03-21T05:23:31;34.83;;;11.77;;
18822;SDS011;9540;51.550;7.980;2023-03-21T05:26:02;27.58;;;11.18;;
18822;SDS011;9540;51.550;7.980;2023-03-21T05:28:30;30.05;;;12.05;;
18822;SDS011;9540;51.550;7.980;2023-03-21T05:31:01;28.63;;;12.32;;
18822;SDS011;9540;51.550;7.980;2023-03-21T05:33:28;31.65;;;11.70;;
18822;SDS011;9540;51.550;7.980;2023-03-21T05:35:56;25.70;;;12.35;;
18822;SDS011;9540;51.550;7.980;2023-03-21T05:38:25;29.58;;;11.35;;
18822;SDS011;9540;51.550;7.980;2023-03-21T05:40:52;34.65;;;11.77;;
18822;SDS011;9540;51.550;7.980;2023-03-21T05:43:20;32.38;;;11.82;;
18822;SDS011;9540;51.550;7.980;2023-03-21T05:45:47;26.73;;;10.45;;
18822;SDS011;9540;51.550;7.980;2023-03-21T05:48:14;27.60;;;11.88;;
18822;SDS011;9540;51.550;7.980;2023-03-21T05:50:41;37.45;;;12.02;;
18822;SDS011;9540;51.550;7.980;2023-03-21T05:53:08;23.42;;;9.75;;
18822;SDS011;9540;51.550;7.980;2023-03-21T05:55:37;26.42;;;11.15;;
18822;SDS011;9540;51.550;7.980;2023-03-21T05:58:04;34.95;;;11.57;;
18822;SDS011;9540;51.550;7.980;2023-03-21T06:00:31;30.65;;;11.48;;
18822;SDS011;9540;51.550;7.980;2023-03-21T06:02:58;29.42;;;13.45;;
18822;SDS011;9540;51.550;7.980;2023-03-21T06:05:25;32.85;;;12.07;;
18822;SDS011;9540;51.550;7.980;2023-03-21T06:07:53;26.38;;;10.23;;
18822;SDS011;9540;51.550;7.980;2023-03-21T06:10:20;25.65;;;11.73;;
18822;SDS011;9540;51.550;7.980;2023-03-21T06:12:49;26.77;;;10.77;;
18822;SDS011;9540;51.550;7.980;2023-03-21T06:15:16;23.65;;;9.57;;
18822;SDS011;9540;51.550;7.980;2023-03-21T06:17:46;28.55;;;12.10;;
18822;SDS011;9540;51.550;7.980;2023-03-21T06:20:14;24.20;;;10.63;;
18822;SDS011;9540;51.550;7.980;2023-03-21T06:22:41;30.70;;;10.35;;
18822;SDS011;9540;51.550;7.980;2023-03-21T06:25:08;28.77;;;12.00;;
18822;SDS011;9540;51.550;7.980;2023-03-21T06:27:36;26.40;;;11.18;;
18822;SDS011;9540;51.550;7.980;2023-03-21T06:30:05;23.85;;;10.15;;
18822;SDS011;9540;51.550;7.980;2023-03-21T06:32:33;22.08;;;10.68;;
18822;SDS011;9540;51.550;7.980;2023-03-21T06:35:01;25.08;;;10.48;;
18822;SDS011;9540;51.550;7.980;2023-03-21T06:37:28;26.33;;;10.45;;
18822;SDS011;9540;51.550;7.980;2023-03-21T06:39:55;21.58;;;10.25;;
18822;SDS011;9540;51.550;7.980;2023-03-21T06:42:23;23.70;;;9.77;;
18822;SDS011;9540;51.550;7.980;2023-03-21T06:44:50;23.90;;;10.23;;
18822;SDS011;9540;51.550;7.980;2023-03-21T06:47:18;30.70;;;12.23;;
18822;SDS011;9540;51.550;7.980;2023-03-21T06:49:45;21.90;;;8.95;;
18822;SDS011;9540;51.550;7.980;2023-03-21T06:52:13;23.48;;;9.65;;
18822;SDS011;9540;51.550;7.980;2023-03-21T06:54:40;21.75;;;9.98;;
18822;SDS011;9540;51.550;7.980;2023-03-21T06:57:07;20.63;;;8.73;;
18822;SDS011;9540;51.550;7.980;2023-03-21T06:59:35;23.80;;;9.85;;
18822;SDS011;9540;51.550;7.980;2023-03-21T07:02:02;23.17;;;8.75;;
18822;SDS011;9540;51.550;7.980;2023-03-21T07:04:31;19.80;;;9.68;;
18822;SDS011;9540;51.550;7.980;2023-03-21T07:06:58;20.60;;;9.02;;
18822;SDS011;9540;51.550;7.980;2023-03-21T07:09:25;24.98;;;9.18;;
18822;SDS011;9540;51.550;7.980;2023-03-21T07:11:52;21.70;;;10.05;;
18822;SDS011;9540;51.550;7.980;2023-03-21T07:14:19;23.98;;;8.85;;
18822;SDS011;9540;51.550;7.980;2023-03-21T07:16:48;21.20;;;10.18;;
18822;SDS011;9540;51.550;7.980;2023-03-21T07:19:15;19.77;;;8.75;;
18822;SDS011;9540;51.550;7.980;2023-03-21T07:21:43;22.77;;;8.98;;
18822;SDS011;9540;51.550;7.980;2023-03-21T07:24:11;18.42;;;8.95;;
18822;SDS011;9540;51.550;7.980;2023-03-21T07:26:38;25.40;;;10.02;;
18822;SDS011;9540;51.550;7.980;2023-03-21T07:29:05;19.27;;;8.75;;
18822;SDS011;9540;51.550;7.980;2023-03-21T07:31:32;22.08;;;8.65;;
18822;SDS011;9540;51.550;7.980;2023-03-21T07:33:59;20.98;;;9.20;;
18822;SDS011;9540;51.550;7.980;2023-03-21T07:36:26;27.35;;;9.90;;
18822;SDS011;9540;51.550;7.980;2023-03-21T07:38:55;23.50;;;10.85;;
18822;SDS011;9540;51.550;7.980;2023-03-21T07:41:22;20.75;;;9.55;;
18822;SDS011;9540;51.550;7.980;2023-03-21T07:43:49;23.48;;;9.05;;
18822;SDS011;9540;51.550;7.980;2023-03-21T07:46:17;24.17;;;9.18;;
18822;SDS011;9540;51.550;7.980;2023-03-21T07:48:44;22.85;;;9.65;;
18822;SDS011;9540;51.550;7.980;2023-03-21T07:51:11;24.85;;;10.23;;
18822;SDS011;9540;51.550;7.980;2023-03-21T07:53:38;21.27;;;10.13;;
18822;SDS011;9540;51.550;7.980;2023-03-21T07:56:09;25.17;;;10.10;;
18822;SDS011;9540;51.550;7.980;2023-03-21T07:58:36;23.48;;;9.68;;
18822;SDS011;9540;51.550;7.980;2023-03-21T08:01:03;28.40;;;10.52;;
18822;SDS011;9540;51.550;7.980;2023-03-21T08:03:31;26.88;;;9.98;;
18822;SDS011;9540;51.550;7.980;2023-03-21T08:05:59;21.98;;;10.25;;
18822;SDS011;9540;51.550;7.980;2023-03-21T08:08:26;16.15;;;8.93;;
18822;SDS011;9540;51.550;7.980;2023-03-21T08:10:53;18.70;;;8.35;;
18822;SDS011;9540;51.550;7.980;2023-03-21T08:13:22;22.25;;;8.75;;
18822;SDS011;9540;51.550;7.980;2023-03-21T08:15:50;18.65;;;8.77;;
18822;SDS011;9540;51.550;7.980;2023-03-21T08:18:17;20.23;;;9.18;;
18822;SDS011;9540;51.550;7.980;2023-03-21T08:20:44;21.88;;;8.60;;
18822;SDS011;9540;51.550;7.980;2023-03-21T08:23:11;19.23;;;8.55;;
18822;SDS011;9540;51.550;7.980;2023-03-21T08:25:39;20.42;;;8.10;;
18822;SDS011;9540;51.550;7.980;2023-03-21T08:28:06;17.92;;;8.38;;
18822;SDS011;9540;51.550;7.980;2023-03-21T08:30:35;20.00;;;8.63;;
18822;SDS011;9540;51.550;7.980;2023-03-21T08:33:03;19.75;;;8.63;;
18822;SDS011;9540;51.550;7.980;2023-03-21T08:35:30;17.08;;;7.18;;
18822;SDS011;9540;51.550;7.980;2023-03-21T08:37:57;18.48;;;8.70;;
18822;SDS011;9540;51.550;7.980;2023-03-21T08:40:25;24.75;;;8.68;;
18822;SDS011;9540;51.550;7.980;2023-03-21T08:42:52;19.60;;;8.77;;
18822;SDS011;9540;51.550;7.980;2023-03-21T08:45:19;20.75;;;9.60;;
18822;SDS011;9540;51.550;7.980;2023-03-21T08:47:51;20.73;;;9.25;;
18822;SDS011;9540;51.550;7.980;2023-03-21T08:50:19;22.92;;;9.63;;
18822;SDS011;9540;51.550;7.980;2023-03-21T08:52:47;23.55;;;9.85;;
18822;SDS011;9540;51.550;7.980;2023-03-21T08:55:15;21.42;;;9.50;;
18822;SDS011;9540;51.550;7.980;2023-03-21T08:57:43;24.80;;;10.35;;
18822;SDS011;9540;51.550;7.980;2023-03-21T09:00:12;28.60;;;10.98;;
18822;SDS011;9540;51.550;7.980;2023-03-21T09:02:42;26.55;;;10.38;;
18822;SDS011;9540;51.550;7.980;2023-03-21T09:05:13;24.83;;;10.48;;
18822;SDS011;9540;51.550;7.980;2023-03-21T09:07:41;23.65;;;10.80;;
18822;SDS011;9540;51.550;7.980;2023-03-21T09:10:09;37.40;;;11.48;;
18822;SDS011;9540;51.550;7.980;2023-03-21T09:12:38;23.40;;;10.70;;
18822;SDS011;9540;51.550;7.980;2023-03-21T09:15:06;23.38;;;10.45;;
18822;SDS011;9540;51.550;7.980;2023-03-21T09:17:34;22.98;;;10.45;;
18822;SDS011;9540;51.550;7.980;2023-03-21T09:20:08;19.60;;;10.00;;
18822;SDS011;9540;51.550;7.980;2023-03-21T09:22:44;20.17;;;10.65;;
18822;SDS011;9540;51.550;7.980;2023-03-21T09:25:12;23.02;;;10.98;;
18822;SDS011;9540;51.550;7.980;2023-03-21T09:27:39;21.92;;;10.82;;
18822;SDS011;9540;51.550;7.980;2023-03-21T09:30:10;22.08;;;10.85;;
18822;SDS011;9540;51.550;7.980;2023-03-21T09:32:40;18.23;;;10.00;;
18822;SDS011;9540;51.550;7.980;2023-03-21T09:35:07;22.75;;;10.10;;
18822;SDS011;9540;51.550;7.980;2023-03-21T09:37:35;24.35;;;10.77;;
18822;SDS011;9540;51.550;7.980;2023-03-21T09:40:12;27.05;;;11.15;;
18822;SDS011;9540;51.550;7.980;2023-03-21T09:42:45;26.50;;;10.20;;
18822;SDS011;9540;51.550;7.980;2023-03-21T09:45:23;23.60;;;10.90;;
18822;SDS011;9540;51.550;7.980;2023-03-21T09:47:58;19.63;;;9.85;;
18822;SDS011;9540;51.550;7.980;2023-03-21T09:50:28;23.42;;;10.50;;
18822;SDS011;9540;51.550;7.980;2023-03-21T09:52:59;28.10;;;10.02;;
18822;SDS011;9540;51.550;7.980;2023-03-21T09:55:33;21.08;;;10.20;;
18822;SDS011;9540;51.550;7.980;2023-03-21T09:58:04;21.58;;;9.57;;
18822;SDS011;9540;51.550;7.980;2023-03-21T10:00:39;18.95;;;8.85;;
18822;SDS011;9540;51.550;7.980;2023-03-21T10:03:14;22.83;;;9.75;;
18822;SDS011;9540;51.550;7.980;2023-03-21T10:05:49;23.65;;;10.10;;
18822;SDS011;9540;51.550;7.980;2023-03-21T10:08:21;28.98;;;10.02;;
18822;SDS011;9540;51.550;7.980;2023-03-21T10:10:57;20.42;;;10.00;;
18822;SDS011;9540;51.550;7.980;2023-03-21T10:13:28;27.08;;;10.50;;
18822;SDS011;9540;51.550;7.980;2023-03-21T10:15:59;18.90;;;9.95;;
18822;SDS011;9540;51.550;7.980;2023-03-21T10:18:30;19.35;;;9.13;;
18822;SDS011;9540;51.550;7.980;2023-03-21T10:20:58;19.15;;;10.18;;
18822;SDS011;9540;51.550;7.980;2023-03-21T10:23:26;24.80;;;9.98;;
18822;SDS011;9540;51.550;7.980;2023-03-21T10:25:56;22.20;;;9.23;;
18822;SDS011;9540;51.550;7.980;2023-03-21T10:28:26;27.88;;;9.10;;
18822;SDS011;9540;51.550;7.980;2023-03-21T10:30:57;20.27;;;9.07;;
18822;SDS011;9540;51.550;7.980;2023-03-21T10:33:28;19.15;;;8.50;;
18822;SDS011;9540;51.550;7.980;2023-03-21T10:36:00;30.67;;;9.23;;
18822;SDS011;9540;51.550;7.980;2023-03-21T10:38:30;19.42;;;8.73;;
18822;SDS011;9540;51.550;7.980;2023-03-21T10:40:59;24.08;;;8.75;;
18822;SDS011;9540;51.550;7.980;2023-03-21T10:43:30;21.88;;;9.20;;
18822;SDS011;9540;51.550;7.980;2023-03-21T10:46:04;22.50;;;8.90;;
18822;SDS011;9540;51.550;7.980;2023-03-21T10:48:38;21.10;;;8.40;;
18822;SDS011;9540;51.550;7.980;2023-03-21T10:51:11;15.63;;;7.82;;
18822;SDS011;9540;51.550;7.980;2023-03-21T10:53:45;15.05;;;7.90;;
18822;SDS011;9540;51.550;7.980;2023-03-21T10:56:17;17.00;;;7.45;;
18822;SDS011;9540;51.550;7.980;2023-03-21T10:58:48;16.45;;;7.35;;
18822;SDS011;9540;51.550;7.980;2023-03-21T11:01:21;12.30;;;6.88;;
18822;SDS011;9540;51.550;7.980;2023-03-21T11:03:55;14.07;;;7.13;;
18822;SDS011;9540;51.550;7.980;2023-03-21T11:06:28;16.30;;;6.40;;
18822;SDS011;9540;51.550;7.980;2023-03-21T11:08:59;13.98;;;6.50;;
18822;SDS011;9540;51.550;7.980;2023-03-21T11:11:33;13.93;;;6.38;;
18822;SDS011;9540;51.550;7.980;2023-03-21T11:14:03;10.82;;;6.35;;
18822;SDS011;9540;51.550;7.980;2023-03-21T11:16:35;13.27;;;6.78;;
18822;SDS011;9540;51.550;7.980;2023-03-21T11:19:11;11.93;;;6.53;;
18822;SDS011;9540;51.550;7.980;2023-03-21T11:21:40;12.48;;;6.13;;
18822;SDS011;9540;51.550;7.980;2023-03-21T11:24:10;12.40;;;6.00;;
18822;SDS011;9540;51.550;7.980;2023-03-21T11:26:41;17.70;;;6.75;;
18822;SDS011;9540;51.550;7.980;2023-03-21T11:29:15;10.00;;;6.22;;
18822;SDS011;9540;51.550;7.980;2023-03-21T11:31:50;11.75;;;5.93;;
18822;SDS011;9540;51.550;7.980;2023-03-21T11:34:24;8.55;;;5.57;;
18822;SDS011;9540;51.550;7.980;2023-03-21T11:36:57;15.30;;;5.85;;
18822;SDS011;9540;51.550;7.980;2023-03-21T11:39:35;10.43;;;5.95;;
18822;SDS011;9540;51.550;7.980;2023-03-21T11:42:10;11.40;;;5.72;;
18822;SDS011;9540;51.550;7.980;2023-03-21T11:45:02;12.05;;;5.97;;
18822;SDS011;9540;51.550;7.980;2023-03-21T11:47:36;14.20;;;6.20;;
18822;SDS011;9540;51.550;7.980;2023-03-21T11:50:08;9.38;;;5.90;;
18822;SDS011;9540;51.550;7.980;2023-03-21T11:52:47;12.85;;;6.10;;
18822;SDS011;9540;51.550;7.980;2023-03-21T11:55:30;11.20;;;4.90;;
18822;SDS011;9540;51.550;7.980;2023-03-21T11:58:07;11.15;;;6.25;;
18822;SDS011;9540;51.550;7.980;2023-03-21T12:00:47;7.47;;;5.18;;
18822;SDS011;9540;51.550;7.980;2023-03-21T12:03:37;10.95;;;5.30;;
18822;SDS011;9540;51.550;7.980;2023-03-21T12:06:14;13.80;;;5.05;;
18822;SDS011;9540;51.550;7.980;2023-03-21T12:08:50;12.07;;;5.53;;
18822;SDS011;9540;51.550;7.980;2023-03-21T12:11:32;15.90;;;5.80;;
18822;SDS011;9540;51.550;7.980;2023-03-21T12:14:09;10.23;;;5.75;;
18822;SDS011;9540;51.550;7.980;2023-03-21T12:16:48;10.48;;;6.07;;
18822;SDS011;9540;51.550;7.980;2023-03-21T12:19:33;9.50;;;5.85;;
18822;SDS011;9540;51.550;7.980;2023-03-21T12:22:15;11.27;;;5.70;;
18822;SDS011;9540;51.550;7.980;2023-03-21T12:24:52;11.82;;;5.22;;
18822;SDS011;9540;51.550;7.980;2023-03-21T12:27:23;11.90;;;5.13;;
18822;SDS011;9540;51.550;7.980;2023-03-21T12:30:15;6.93;;;4.65;;
18822;SDS011;9540;51.550;7.980;2023-03-21T12:32:53;9.75;;;4.13;;
18822;SDS011;9540;51.550;7.980;2023-03-21T12:35:38;11.57;;;4.88;;
18822;SDS011;9540;51.550;7.980;2023-03-21T12:38:17;15.35;;;4.43;;
18822;SDS011;9540;51.550;7.980;2023-03-21T12:40:59;8.23;;;4.47;;
18822;SDS011;9540;51.550;7.980;2023-03-21T12:43:35;7.78;;;4.25;;
18822;SDS011;9540;51.550;7.980;2023-03-21T12:46:10;9.00;;;3.63;;
18822;SDS011;9540;51.550;7.980;2023-03-21T12:48:43;8.85;;;3.65;;
18822;SDS011;9540;51.550;7.980;2023-03-21T12:51:15;6.68;;;3.75;;
18822;SDS011;9540;51.550;7.980;2023-03-21T12:53:49;11.32;;;3.90;;
18822;SDS011;9540;51.550;7.980;2023-03-21T12:56:21;6.45;;;3.38;;
18822;SDS011;9540;51.550;7.980;2023-03-21T12:58:53;9.98;;;3.42;;
18822;SDS011;9540;51.550;7.980;2023-03-21T13:01:26;9.05;;;3.33;;
18822;SDS011;9540;51.550;7.980;2023-03-21T13:04:04;5.43;;;3.08;;
18822;SDS011;9540;51.550;7.980;2023-03-21T13:06:40;5.90;;;2.58;;
18822;SDS011;9540;51.550;7.980;2023-03-21T13:09:10;6.03;;;2.97;;
18822;SDS011;9540;51.550;7.980;2023-03-21T13:11:41;6.60;;;2.80;;
18822;SDS011;9540;51.550;7.980;2023-03-21T13:14:11;6.45;;;2.90;;
18822;SDS011;9540;51.550;7.980;2023-03-21T13:16:48;7.03;;;2.60;;
18822;SDS011;9540;51.550;7.980;2023-03-21T13:19:21;4.45;;;2.75;;
18822;SDS011;9540;51.550;7.980;2023-03-21T13:21:56;5.53;;;2.47;;
18822;SDS011;9540;51.550;7.980;2023-03-21T13:24:37;6.63;;;2.50;;
18822;SDS011;9540;51.550;7.980;2023-03-21T13:27:14;4.90;;;2.55;;
18822;SDS011;9540;51.550;7.980;2023-03-21T13:29:49;6.40;;;2.72;;
18822;SDS011;9540;51.550;7.980;2023-03-21T13:32:22;8.07;;;3.00;;
18822;SDS011;9540;51.550;7.980;2023-03-21T13:34:53;5.78;;;3.38;;
18822;SDS011;9540;51.550;7.980;2023-03-21T13:37:22;6.68;;;3.00;;
18822;SDS011;9540;51.550;7.980;2023-03-21T13:39:55;8.98;;;2.90;;
18822;SDS011;9540;51.550;7.980;2023-03-21T13:42:33;7.00;;;2.58;;
18822;SDS011;9540;51.550;7.980;2023-03-21T13:45:04;3.38;;;2.20;;
18822;SDS011;9540;51.550;7.980;2023-03-21T13:47:41;6.70;;;2.92;;
18822;SDS011;9540;51.550;7.980;2023-03-21T13:50:34;9.35;;;3.30;;
18822;SDS011;9540;51.550;7.980;2023-03-21T13:53:19;9.68;;;3.10;;
18822;SDS011;9540;51.550;7.980;2023-03-21T13:55:59;7.93;;;3.35;;
18822;SDS011;9540;51.550;7.980;2023-03-21T13:58:49;3.47;;;2.55;;
18822;SDS011;9540;51.550;7.980;2023-03-21T14:04:15;7.75;;;3.13;;
18822;SDS011;9540;51.550;7.980;2023-03-21T14:06:45;7.40;;;2.63;;
18822;SDS011;9540;51.550;7.980;2023-03-21T14:09:21;4.10;;;2.17;;
18822;SDS011;9540;51.550;7.980;2023-03-21T14:11:52;5.18;;;2.63;;
18822;SDS011;9540;51.550;7.980;2023-03-21T14:14:21;9.95;;;3.40;;
18822;SDS011;9540;51.550;7.980;2023-03-21T14:16:52;4.18;;;2.55;;
18822;SDS011;9540;51.550;7.980;2023-03-21T14:19:29;1.75;;;1.60;;
18822;SDS011;9540;51.550;7.980;2023-03-21T14:21:57;5.35;;;2.20;;
18822;SDS011;9540;51.550;7.980;2023-03-21T14:24:24;6.00;;;2.28;;
18822;SDS011;9540;51.550;7.980;2023-03-21T14:26:52;3.42;;;1.98;;
18822;SDS011;9540;51.550;7.980;2023-03-21T14:29:22;4.03;;;2.20;;
18822;SDS011;9540;51.550;7.980;2023-03-21T14:31:52;2.83;;;1.98;;
18822;SDS011;9540;51.550;7.980;2023-03-21T14:34:20;5.13;;;2.08;;
18822;SDS011;9540;51.550;7.980;2023-03-21T14:36:49;3.38;;;2.60;;
18822;SDS011;9540;51.550;7.980;2023-03-21T14:39:56;4.70;;;2.40;;
18822;SDS011;9540;51.550;7.980;2023-03-21T14:42:25;4.97;;;2.20;;
18822;SDS011;9540;51.550;7.980;2023-03-21T14:44:53;5.13;;;2.20;;
18822;SDS011;9540;51.550;7.980;2023-03-21T14:47:25;5.70;;;2.35;;
18822;SDS011;9540;51.550;7.980;2023-03-21T14:49:53;3.08;;;2.22;;
18822;SDS011;9540;51.550;7.980;2023-03-21T14:52:22;4.55;;;2.20;;
18822;SDS011;9540;51.550;7.980;2023-03-21T14:54:50;3.95;;;2.10;;
18822;SDS011;9540;51.550;7.980;2023-03-21T14:57:20;5.93;;;2.00;;
18822;SDS011;9540;51.550;7.980;2023-03-21T14:59:50;6.97;;;2.58;;
18822;SDS011;9540;51.550;7.980;2023-03-21T15:02:21;4.35;;;2.80;;
18822;SDS011;9540;51.550;7.980;2023-03-21T15:04:52;3.30;;;2.08;;
18822;SDS011;9540;51.550;7.980;2023-03-21T15:07:26;3.17;;;2.05;;
18822;SDS011;9540;51.550;7.980;2023-03-21T15:09:54;4.15;;;2.10;;
18822;SDS011;9540;51.550;7.980;2023-03-21T15:12:24;5.05;;;2.35;;